sensor_id;sensor_type;location;lat;lon;timestamp;temperature;humidity
652;DHT22;310;48.490;9.200;2022-08-05T00:05:39;28.40;27.10
652;DHT22;310;48.490;9.200;2022-08-05T00:17:51;28.00;27.50
652;DHT22;310;48.490;9.200;2022-08-05T00:20:17;28.30;28.00
652;DHT22;310;48.490;9.200;2022-08-05T00:22:42;28.10;29.30
652;DHT22;310;48.490;9.200;2022-08-05T00:25:08;28.20;28.50
652;DHT22;310;48.490;9.200;2022-08-05T00:30:00;27.70;29.10
652;DHT22;310;48.490;9.200;2022-08-05T00:32:25;27.90;29.40
652;DHT22;310;48.490;9.200;2022-08-05T00:34:51;27.80;29.00
652;DHT22;310;48.490;9.200;2022-08-05T00:37:17;27.80;29.70
652;DHT22;310;48.490;9.200;2022-08-05T00:39:42;27.70;30.60
652;DHT22;310;48.490;9.200;2022-08-05T00:49:26;27.50;30.40
652;DHT22;310;48.490;9.200;2022-08-05T00:51:51;27.50;32.10
652;DHT22;310;48.490;9.200;2022-08-05T00:54:17;27.40;29.80
652;DHT22;310;48.490;9.200;2022-08-05T00:56:43;27.00;30.10
652;DHT22;310;48.490;9.200;2022-08-05T01:11:22;27.50;30.30
652;DHT22;310;48.490;9.200;2022-08-05T01:14:11;27.40;31.00
652;DHT22;310;48.490;9.200;2022-08-05T01:19:29;27.30;30.30
652;DHT22;310;48.490;9.200;2022-08-05T01:30:04;27.30;30.20
652;DHT22;310;48.490;9.200;2022-08-05T01:32:33;27.10;31.60
652;DHT22;310;48.490;9.200;2022-08-05T01:40:04;25.10;33.20
652;DHT22;310;48.490;9.200;2022-08-05T01:42:32;25.20;31.50
652;DHT22;310;48.490;9.200;2022-08-05T01:45:00;25.40;31.70
652;DHT22;310;48.490;9.200;2022-08-05T01:47:27;26.00;29.60
652;DHT22;310;48.490;9.200;2022-08-05T01:57:19;27.20;28.00
652;DHT22;310;48.490;9.200;2022-08-05T02:02:16;27.40;28.20
652;DHT22;310;48.490;9.200;2022-08-05T02:17:50;27.60;28.10
652;DHT22;310;48.490;9.200;2022-08-05T02:20:21;27.70;27.10
652;DHT22;310;48.490;9.200;2022-08-05T02:22:53;27.50;28.90
652;DHT22;310;48.490;9.200;2022-08-05T02:25:33;27.40;27.40
652;DHT22;310;48.490;9.200;2022-08-05T02:32:55;27.50;27.90
652;DHT22;310;48.490;9.200;2022-08-05T02:35:24;27.60;26.50
652;DHT22;310;48.490;9.200;2022-08-05T02:40:20;27.30;27.50
652;DHT22;310;48.490;9.200;2022-08-05T02:45:13;27.90;26.00
652;DHT22;310;48.490;9.200;2022-08-05T02:57:28;27.50;28.90
652;DHT22;310;48.490;9.200;2022-08-05T02:59:54;27.40;28.20
652;DHT22;310;48.490;9.200;2022-08-05T03:04:50;27.70;27.90
652;DHT22;310;48.490;9.200;2022-08-05T03:07:18;27.40;29.80
652;DHT22;310;48.490;9.200;2022-08-05T03:17:21;27.30;30.30
652;DHT22;310;48.490;9.200;2022-08-05T03:19:46;27.20;29.10
652;DHT22;310;48.490;9.200;2022-08-05T03:24:39;27.30;29.60
652;DHT22;310;48.490;9.200;2022-08-05T03:27:06;27.00;30.00
652;DHT22;310;48.490;9.200;2022-08-05T03:29:31;27.00;30.10
652;DHT22;310;48.490;9.200;2022-08-05T03:31:57;27.00;30.10
652;DHT22;310;48.490;9.200;2022-08-05T03:34:24;27.00;30.70
652;DHT22;310;48.490;9.200;2022-08-05T03:36:49;27.00;32.20
652;DHT22;310;48.490;9.200;2022-08-05T03:39:15;26.90;32.30
652;DHT22;310;48.490;9.200;2022-08-05T03:51:30;26.90;31.50
652;DHT22;310;48.490;9.200;2022-08-05T03:59:00;27.30;29.80
652;DHT22;310;48.490;9.200;2022-08-05T04:01:28;27.00;30.10
652;DHT22;310;48.490;9.200;2022-08-05T04:18:34;26.60;31.20
652;DHT22;310;48.490;9.200;2022-08-05T04:21:02;26.80;30.80
652;DHT22;310;48.490;9.200;2022-08-05T04:23:28;26.70;30.40
652;DHT22;310;48.490;9.200;2022-08-05T04:28:20;26.90;31.40
652;DHT22;310;48.490;9.200;2022-08-05T04:30:46;26.80;31.00
652;DHT22;310;48.490;9.200;2022-08-05T04:33:13;26.50;31.30
652;DHT22;310;48.490;9.200;2022-08-05T04:35:39;26.30;32.60
652;DHT22;310;48.490;9.200;2022-08-05T04:38:05;26.20;33.30
652;DHT22;310;48.490;9.200;2022-08-05T04:40:38;26.10;33.40
652;DHT22;310;48.490;9.200;2022-08-05T04:48:05;26.20;32.70
652;DHT22;310;48.490;9.200;2022-08-05T04:50:37;26.20;33.30
652;DHT22;310;48.490;9.200;2022-08-05T04:53:02;26.20;32.40
652;DHT22;310;48.490;9.200;2022-08-05T05:24:41;23.80;37.20
652;DHT22;310;48.490;9.200;2022-08-05T05:34:25;24.30;34.60
652;DHT22;310;48.490;9.200;2022-08-05T05:36:51;24.80;32.70
652;DHT22;310;48.490;9.200;2022-08-05T05:39:16;24.90;32.20
652;DHT22;310;48.490;9.200;2022-08-05T05:41:42;25.40;33.00
652;DHT22;310;48.490;9.200;2022-08-05T05:56:19;27.00;27.90
652;DHT22;310;48.490;9.200;2022-08-05T06:06:06;27.00;31.70
652;DHT22;310;48.490;9.200;2022-08-05T06:30:26;27.10;27.50
652;DHT22;310;48.490;9.200;2022-08-05T06:32:52;26.90;28.10
652;DHT22;310;48.490;9.200;2022-08-05T06:42:37;27.00;29.00
652;DHT22;310;48.490;9.200;2022-08-05T06:47:30;27.10;30.00
652;DHT22;310;48.490;9.200;2022-08-05T06:52:22;28.20;28.30
652;DHT22;310;48.490;9.200;2022-08-05T06:59:42;27.80;29.40
652;DHT22;310;48.490;9.200;2022-08-05T07:02:08;27.90;29.10
652;DHT22;310;48.490;9.200;2022-08-05T07:11:52;27.30;29.90
652;DHT22;310;48.490;9.200;2022-08-05T07:14:20;27.30;30.30
652;DHT22;310;48.490;9.200;2022-08-05T07:17:04;27.10;30.20
652;DHT22;310;48.490;9.200;2022-08-05T07:19:30;27.10;30.80
652;DHT22;310;48.490;9.200;2022-08-05T07:21:55;27.40;29.10
652;DHT22;310;48.490;9.200;2022-08-05T07:24:21;27.10;30.20
652;DHT22;310;48.490;9.200;2022-08-05T07:26:47;27.00;30.70
652;DHT22;310;48.490;9.200;2022-08-05T07:29:13;27.20;30.00
652;DHT22;310;48.490;9.200;2022-08-05T07:31:39;27.20;30.30
652;DHT22;310;48.490;9.200;2022-08-05T07:34:05;27.50;29.90
652;DHT22;310;48.490;9.200;2022-08-05T07:36:31;27.60;30.60
652;DHT22;310;48.490;9.200;2022-08-05T07:39:05;27.20;30.90
652;DHT22;310;48.490;9.200;2022-08-05T07:41:31;27.60;29.70
652;DHT22;310;48.490;9.200;2022-08-05T07:43:58;27.10;30.20
652;DHT22;310;48.490;9.200;2022-08-05T07:46:26;27.10;30.80
652;DHT22;310;48.490;9.200;2022-08-05T07:48:57;27.50;28.30
652;DHT22;310;48.490;9.200;2022-08-05T07:51:23;27.50;29.00
652;DHT22;310;48.490;9.200;2022-08-05T07:53:49;28.10;27.00
652;DHT22;310;48.490;9.200;2022-08-05T07:56:14;28.30;25.60
652;DHT22;310;48.490;9.200;2022-08-05T07:58:40;28.30;26.10
652;DHT22;310;48.490;9.200;2022-08-05T08:01:06;28.00;26.20
652;DHT22;310;48.490;9.200;2022-08-05T08:03:32;27.90;27.10
652;DHT22;310;48.490;9.200;2022-08-05T08:08:23;27.40;26.60
652;DHT22;310;48.490;9.200;2022-08-05T08:10:49;27.40;27.10
652;DHT22;310;48.490;9.200;2022-08-05T08:13:14;28.00;25.90
652;DHT22;310;48.490;9.200;2022-08-05T08:15:40;28.10;26.00
652;DHT22;310;48.490;9.200;2022-08-05T08:18:06;28.10;25.80
652;DHT22;310;48.490;9.200;2022-08-05T08:20:31;27.40;25.30
652;DHT22;310;48.490;9.200;2022-08-05T08:22:58;27.50;25.80
652;DHT22;310;48.490;9.200;2022-08-05T08:25:26;27.80;25.30
652;DHT22;310;48.490;9.200;2022-08-05T08:27:53;27.90;25.60
652;DHT22;310;48.490;9.200;2022-08-05T08:30:18;27.90;25.10
652;DHT22;310;48.490;9.200;2022-08-05T08:32:44;27.90;26.00
652;DHT22;310;48.490;9.200;2022-08-05T08:35:10;28.10;25.70
652;DHT22;310;48.490;9.200;2022-08-05T08:37:36;28.20;26.10
652;DHT22;310;48.490;9.200;2022-08-05T08:40:02;29.20;24.10
652;DHT22;310;48.490;9.200;2022-08-05T08:42:29;29.50;25.20
652;DHT22;310;48.490;9.200;2022-08-05T08:44:57;28.80;24.10
652;DHT22;310;48.490;9.200;2022-08-05T08:47:26;28.90;24.70
652;DHT22;310;48.490;9.200;2022-08-05T08:49:54;29.30;24.40
652;DHT22;310;48.490;9.200;2022-08-05T08:52:31;30.00;24.70
652;DHT22;310;48.490;9.200;2022-08-05T08:54:58;30.10;22.90
652;DHT22;310;48.490;9.200;2022-08-05T08:57:24;30.30;23.10
652;DHT22;310;48.490;9.200;2022-08-05T08:59:50;30.60;23.30
652;DHT22;310;48.490;9.200;2022-08-05T09:02:19;30.90;23.00
652;DHT22;310;48.490;9.200;2022-08-05T09:04:45;31.10;22.60
652;DHT22;310;48.490;9.200;2022-08-05T09:07:11;31.30;22.20
652;DHT22;310;48.490;9.200;2022-08-05T09:09:38;31.40;21.50
652;DHT22;310;48.490;9.200;2022-08-05T09:12:05;31.40;21.90
652;DHT22;310;48.490;9.200;2022-08-05T09:14:33;31.30;22.10
652;DHT22;310;48.490;9.200;2022-08-05T09:16:59;31.40;22.10
652;DHT22;310;48.490;9.200;2022-08-05T09:19:25;31.60;20.60
652;DHT22;310;48.490;9.200;2022-08-05T09:21:50;31.50;21.30
652;DHT22;310;48.490;9.200;2022-08-05T09:24:16;31.50;22.10
652;DHT22;310;48.490;9.200;2022-08-05T09:26:46;31.40;21.20
652;DHT22;310;48.490;9.200;2022-08-05T09:29:12;31.40;20.40
652;DHT22;310;48.490;9.200;2022-08-05T09:31:39;31.50;21.50
652;DHT22;310;48.490;9.200;2022-08-05T09:34:08;31.60;21.20
652;DHT22;310;48.490;9.200;2022-08-05T09:39:11;31.50;20.20
652;DHT22;310;48.490;9.200;2022-08-05T09:42:02;31.30;21.20
652;DHT22;310;48.490;9.200;2022-08-05T09:44:40;31.10;21.70
652;DHT22;310;48.490;9.200;2022-08-05T09:47:26;31.60;19.70
652;DHT22;310;48.490;9.200;2022-08-05T09:49:56;31.80;19.80
652;DHT22;310;48.490;9.200;2022-08-05T09:52:27;31.80;18.90
652;DHT22;310;48.490;9.200;2022-08-05T10:00:06;31.80;18.90
652;DHT22;310;48.490;9.200;2022-08-05T10:02:38;32.00;19.70
652;DHT22;310;48.490;9.200;2022-08-05T10:05:16;31.80;20.00
652;DHT22;310;48.490;9.200;2022-08-05T10:10:26;31.80;19.40
652;DHT22;310;48.490;9.200;2022-08-05T10:12:57;32.10;20.00
652;DHT22;310;48.490;9.200;2022-08-05T10:15:24;32.60;19.30
652;DHT22;310;48.490;9.200;2022-08-05T10:20:32;31.70;19.50
652;DHT22;310;48.490;9.200;2022-08-05T10:22:59;32.10;20.50
652;DHT22;310;48.490;9.200;2022-08-05T10:25:26;31.90;19.00
652;DHT22;310;48.490;9.200;2022-08-05T10:27:52;31.90;19.30
652;DHT22;310;48.490;9.200;2022-08-05T10:30:19;32.20;19.40
652;DHT22;310;48.490;9.200;2022-08-05T10:32:45;32.70;18.70
652;DHT22;310;48.490;9.200;2022-08-05T10:35:12;32.50;17.90
652;DHT22;310;48.490;9.200;2022-08-05T10:37:39;32.70;18.60
652;DHT22;310;48.490;9.200;2022-08-05T10:40:13;31.70;19.00
652;DHT22;310;48.490;9.200;2022-08-05T10:42:42;31.20;19.20
652;DHT22;310;48.490;9.200;2022-08-05T10:45:11;31.90;20.30
652;DHT22;310;48.490;9.200;2022-08-05T10:47:38;31.70;19.60
652;DHT22;310;48.490;9.200;2022-08-05T10:50:10;31.90;21.30
652;DHT22;310;48.490;9.200;2022-08-05T10:52:44;31.80;18.30
652;DHT22;310;48.490;9.200;2022-08-05T10:55:12;31.80;18.80
652;DHT22;310;48.490;9.200;2022-08-05T10:57:39;31.70;18.10
652;DHT22;310;48.490;9.200;2022-08-05T11:00:19;31.90;20.60
652;DHT22;310;48.490;9.200;2022-08-05T11:05:33;32.00;18.30
652;DHT22;310;48.490;9.200;2022-08-05T11:08:06;32.50;19.40
652;DHT22;310;48.490;9.200;2022-08-05T11:10:33;33.00;19.30
652;DHT22;310;48.490;9.200;2022-08-05T11:13:03;33.00;17.70
652;DHT22;310;48.490;9.200;2022-08-05T11:15:36;33.60;17.40
652;DHT22;310;48.490;9.200;2022-08-05T11:18:12;33.00;16.90
652;DHT22;310;48.490;9.200;2022-08-05T11:20:48;32.30;18.10
652;DHT22;310;48.490;9.200;2022-08-05T11:28:43;33.30;17.50
652;DHT22;310;48.490;9.200;2022-08-05T11:33:39;33.70;18.20
652;DHT22;310;48.490;9.200;2022-08-05T11:39:04;35.00;16.80
652;DHT22;310;48.490;9.200;2022-08-05T11:41:29;35.40;14.60
652;DHT22;310;48.490;9.200;2022-08-05T11:46:36;36.50;15.00
652;DHT22;310;48.490;9.200;2022-08-05T11:49:04;36.70;11.50
652;DHT22;310;48.490;9.200;2022-08-05T11:51:30;35.90;14.70
652;DHT22;310;48.490;9.200;2022-08-05T11:53:56;37.00;15.00
652;DHT22;310;48.490;9.200;2022-08-05T11:56:23;37.80;11.90
652;DHT22;310;48.490;9.200;2022-08-05T11:58:49;38.20;10.30
652;DHT22;310;48.490;9.200;2022-08-05T12:01:20;38.90;10.40
652;DHT22;310;48.490;9.200;2022-08-05T12:03:49;39.50;9.90
652;DHT22;310;48.490;9.200;2022-08-05T12:06:17;40.10;11.00
652;DHT22;310;48.490;9.200;2022-08-05T12:08:56;40.20;9.20
652;DHT22;310;48.490;9.200;2022-08-05T12:11:24;40.90;7.90
652;DHT22;310;48.490;9.200;2022-08-05T12:14:04;40.60;7.80
652;DHT22;310;48.490;9.200;2022-08-05T12:16:38;40.80;8.00
652;DHT22;310;48.490;9.200;2022-08-05T12:19:05;41.10;6.90
652;DHT22;310;48.490;9.200;2022-08-05T12:21:33;40.70;7.20
652;DHT22;310;48.490;9.200;2022-08-05T12:24:07;38.90;9.60
652;DHT22;310;48.490;9.200;2022-08-05T12:26:38;39.80;9.10
652;DHT22;310;48.490;9.200;2022-08-05T12:29:09;37.40;10.90
652;DHT22;310;48.490;9.200;2022-08-05T12:31:36;38.70;11.20
652;DHT22;310;48.490;9.200;2022-08-05T12:34:03;39.90;8.80
652;DHT22;310;48.490;9.200;2022-08-05T12:36:31;39.00;8.60
652;DHT22;310;48.490;9.200;2022-08-05T12:38:57;39.70;10.10
652;DHT22;310;48.490;9.200;2022-08-05T12:41:33;40.00;8.00
652;DHT22;310;48.490;9.200;2022-08-05T12:44:08;40.60;7.20
652;DHT22;310;48.490;9.200;2022-08-05T12:46:36;39.00;9.70
652;DHT22;310;48.490;9.200;2022-08-05T12:49:12;39.00;9.30
652;DHT22;310;48.490;9.200;2022-08-05T12:51:54;39.60;10.10
652;DHT22;310;48.490;9.200;2022-08-05T12:54:22;39.90;9.10
652;DHT22;310;48.490;9.200;2022-08-05T12:57:03;39.60;8.20
652;DHT22;310;48.490;9.200;2022-08-05T12:59:51;39.10;8.70
652;DHT22;310;48.490;9.200;2022-08-05T13:02:26;39.00;9.40
652;DHT22;310;48.490;9.200;2022-08-05T13:04:53;38.70;9.50
652;DHT22;310;48.490;9.200;2022-08-05T13:07:24;38.40;11.00
652;DHT22;310;48.490;9.200;2022-08-05T13:09:52;38.10;12.00
652;DHT22;310;48.490;9.200;2022-08-05T13:12:21;37.90;11.50
652;DHT22;310;48.490;9.200;2022-08-05T13:14:57;37.70;10.80
652;DHT22;310;48.490;9.200;2022-08-05T13:17:25;35.80;11.70
652;DHT22;310;48.490;9.200;2022-08-05T13:22:35;36.80;12.00
652;DHT22;310;48.490;9.200;2022-08-05T13:25:07;37.30;12.50
652;DHT22;310;48.490;9.200;2022-08-05T13:27:40;37.20;11.80
652;DHT22;310;48.490;9.200;2022-08-05T13:30:11;37.10;12.40
652;DHT22;310;48.490;9.200;2022-08-05T13:32:37;37.10;12.70
652;DHT22;310;48.490;9.200;2022-08-05T13:35:03;37.40;11.40
652;DHT22;310;48.490;9.200;2022-08-05T13:37:30;37.50;12.50
652;DHT22;310;48.490;9.200;2022-08-05T13:39:57;37.60;11.70
652;DHT22;310;48.490;9.200;2022-08-05T13:44:51;37.00;12.60
652;DHT22;310;48.490;9.200;2022-08-05T13:49:43;37.20;11.90
652;DHT22;310;48.490;9.200;2022-08-05T13:52:13;37.20;10.80
652;DHT22;310;48.490;9.200;2022-08-05T13:57:06;37.00;12.00
652;DHT22;310;48.490;9.200;2022-08-05T13:59:32;37.00;11.50
652;DHT22;310;48.490;9.200;2022-08-05T14:01:58;37.00;11.90
652;DHT22;310;48.490;9.200;2022-08-05T14:04:25;36.90;11.80
652;DHT22;310;48.490;9.200;2022-08-05T14:07:09;36.50;12.70
652;DHT22;310;48.490;9.200;2022-08-05T14:09:35;36.20;13.40
652;DHT22;310;48.490;9.200;2022-08-05T14:12:02;35.80;12.90
652;DHT22;310;48.490;9.200;2022-08-05T14:14:28;35.50;13.60
652;DHT22;310;48.490;9.200;2022-08-05T14:33:57;34.70;14.70
652;DHT22;310;48.490;9.200;2022-08-05T14:41:15;34.40;14.20
652;DHT22;310;48.490;9.200;2022-08-05T14:43:41;33.70;15.20
652;DHT22;310;48.490;9.200;2022-08-05T14:46:07;33.60;15.10
652;DHT22;310;48.490;9.200;2022-08-05T15:03:08;32.20;19.00
652;DHT22;310;48.490;9.200;2022-08-05T15:05:34;32.60;16.90
652;DHT22;310;48.490;9.200;2022-08-05T15:12:57;32.20;19.30
652;DHT22;310;48.490;9.200;2022-08-05T15:15:25;32.30;18.40
652;DHT22;310;48.490;9.200;2022-08-05T15:37:24;29.80;24.90
652;DHT22;310;48.490;9.200;2022-08-05T15:49:35;29.20;24.60
652;DHT22;310;48.490;9.200;2022-08-05T16:09:04;30.40;23.40
652;DHT22;310;48.490;9.200;2022-08-05T16:13:56;30.80;22.70
652;DHT22;310;48.490;9.200;2022-08-05T16:26:06;31.90;22.60
652;DHT22;310;48.490;9.200;2022-08-05T16:28:33;32.60;21.20
652;DHT22;310;48.490;9.200;2022-08-05T16:35:53;32.20;20.70
652;DHT22;310;48.490;9.200;2022-08-05T16:40:45;31.80;22.70
652;DHT22;310;48.490;9.200;2022-08-05T16:43:11;32.30;21.50
652;DHT22;310;48.490;9.200;2022-08-05T16:45:37;31.40;23.20
652;DHT22;310;48.490;9.200;2022-08-05T16:50:29;30.80;23.60
652;DHT22;310;48.490;9.200;2022-08-05T16:52:54;30.20;25.10
652;DHT22;310;48.490;9.200;2022-08-05T16:55:21;29.80;25.70
652;DHT22;310;48.490;9.200;2022-08-05T16:57:46;29.60;26.10
652;DHT22;310;48.490;9.200;2022-08-05T17:19:42;29.80;24.90
652;DHT22;310;48.490;9.200;2022-08-05T17:53:48;28.30;27.00
652;DHT22;310;48.490;9.200;2022-08-05T17:56:14;29.00;25.90
652;DHT22;310;48.490;9.200;2022-08-05T18:10:56;28.40;26.50
652;DHT22;310;48.490;9.200;2022-08-05T18:25:32;28.50;26.40
652;DHT22;310;48.490;9.200;2022-08-05T18:27:57;28.50;26.20
652;DHT22;310;48.490;9.200;2022-08-05T18:30:23;27.90;27.50
652;DHT22;310;48.490;9.200;2022-08-05T18:45:03;27.70;28.50
652;DHT22;310;48.490;9.200;2022-08-05T18:49:55;27.10;29.70
652;DHT22;310;48.490;9.200;2022-08-05T18:52:39;28.00;28.70
652;DHT22;310;48.490;9.200;2022-08-05T18:55:09;28.00;28.20
652;DHT22;310;48.490;9.200;2022-08-05T18:57:39;27.60;29.10
652;DHT22;310;48.490;9.200;2022-08-05T19:00:06;27.40;29.30
652;DHT22;310;48.490;9.200;2022-08-05T19:07:26;27.70;29.90
652;DHT22;310;48.490;9.200;2022-08-05T19:09:52;27.60;30.40
652;DHT22;310;48.490;9.200;2022-08-05T19:12:18;27.50;30.40
652;DHT22;310;48.490;9.200;2022-08-05T19:19:38;26.70;34.20
652;DHT22;310;48.490;9.200;2022-08-05T19:29:23;26.10;36.80
652;DHT22;310;48.490;9.200;2022-08-05T19:31:49;26.80;34.70
652;DHT22;310;48.490;9.200;2022-08-05T19:34:14;26.90;33.60
652;DHT22;310;48.490;9.200;2022-08-05T19:49:00;26.60;35.10
652;DHT22;310;48.490;9.200;2022-08-05T19:51:26;26.50;34.50
652;DHT22;310;48.490;9.200;2022-08-05T20:03:36;25.80;37.30
652;DHT22;310;48.490;9.200;2022-08-05T20:06:02;25.70;37.80
652;DHT22;310;48.490;9.200;2022-08-05T20:10:55;26.50;34.60
652;DHT22;310;48.490;9.200;2022-08-05T20:13:22;26.70;34.00
652;DHT22;310;48.490;9.200;2022-08-05T20:15:48;26.80;33.40
652;DHT22;310;48.490;9.200;2022-08-05T20:18:14;27.00;33.00
652;DHT22;310;48.490;9.200;2022-08-05T20:30:38;25.80;35.10
652;DHT22;310;48.490;9.200;2022-08-05T20:33:03;25.80;35.70
652;DHT22;310;48.490;9.200;2022-08-05T20:35:29;25.60;41.50
652;DHT22;310;48.490;9.200;2022-08-05T20:37:55;25.60;42.70
652;DHT22;310;48.490;9.200;2022-08-05T20:40:20;25.60;42.20
652;DHT22;310;48.490;9.200;2022-08-05T20:42:46;25.40;48.90
652;DHT22;310;48.490;9.200;2022-08-05T20:45:11;24.50;54.30
652;DHT22;310;48.490;9.200;2022-08-05T20:47:37;23.40;69.10
652;DHT22;310;48.490;9.200;2022-08-05T20:50:03;22.40;84.50
652;DHT22;310;48.490;9.200;2022-08-05T20:52:29;22.40;84.70
652;DHT22;310;48.490;9.200;2022-08-05T20:54:55;22.60;85.90
652;DHT22;310;48.490;9.200;2022-08-05T20:57:21;22.60;88.30
652;DHT22;310;48.490;9.200;2022-08-05T20:59:47;23.10;86.20
652;DHT22;310;48.490;9.200;2022-08-05T21:04:39;24.00;76.20
652;DHT22;310;48.490;9.200;2022-08-05T21:09:33;24.20;73.80
652;DHT22;310;48.490;9.200;2022-08-05T21:14:25;24.20;72.30
652;DHT22;310;48.490;9.200;2022-08-05T21:16:50;24.30;67.60
652;DHT22;310;48.490;9.200;2022-08-05T21:19:16;24.10;69.70
652;DHT22;310;48.490;9.200;2022-08-05T21:21:41;24.30;67.50
652;DHT22;310;48.490;9.200;2022-08-05T21:26:35;24.50;63.00
652;DHT22;310;48.490;9.200;2022-08-05T21:38:46;24.30;68.30
652;DHT22;310;48.490;9.200;2022-08-05T21:41:13;24.40;64.30
652;DHT22;310;48.490;9.200;2022-08-05T21:43:39;24.10;63.70
652;DHT22;310;48.490;9.200;2022-08-05T21:46:05;24.30;67.90
652;DHT22;310;48.490;9.200;2022-08-05T21:48:31;24.10;65.60
652;DHT22;310;48.490;9.200;2022-08-05T21:50:56;24.20;64.50
652;DHT22;310;48.490;9.200;2022-08-05T21:53:22;23.70;62.50
652;DHT22;310;48.490;9.200;2022-08-05T22:05:32;23.00;64.90
652;DHT22;310;48.490;9.200;2022-08-05T22:12:50;23.30;62.60
652;DHT22;310;48.490;9.200;2022-08-05T22:15:16;23.10;62.90
652;DHT22;310;48.490;9.200;2022-08-05T22:17:43;22.70;62.50
652;DHT22;310;48.490;9.200;2022-08-05T22:20:11;22.90;65.90
652;DHT22;310;48.490;9.200;2022-08-05T22:22:37;22.80;64.70
652;DHT22;310;48.490;9.200;2022-08-05T22:25:23;22.70;59.80
652;DHT22;310;48.490;9.200;2022-08-05T22:28:09;22.20;67.70
652;DHT22;310;48.490;9.200;2022-08-05T22:30:35;22.30;66.20
652;DHT22;310;48.490;9.200;2022-08-05T22:33:04;22.60;66.30
652;DHT22;310;48.490;9.200;2022-08-05T22:35:30;22.80;62.60
652;DHT22;310;48.490;9.200;2022-08-05T22:37:56;23.40;66.00
652;DHT22;310;48.490;9.200;2022-08-05T22:42:47;23.80;61.70
652;DHT22;310;48.490;9.200;2022-08-05T22:45:13;23.80;57.60
652;DHT22;310;48.490;9.200;2022-08-05T22:47:38;23.70;57.80
652;DHT22;310;48.490;9.200;2022-08-05T22:50:04;23.90;60.90
652;DHT22;310;48.490;9.200;2022-08-05T22:52:30;23.60;56.70
652;DHT22;310;48.490;9.200;2022-08-05T22:57:21;22.90;60.40
652;DHT22;310;48.490;9.200;2022-08-05T22:59:47;23.30;65.30
652;DHT22;310;48.490;9.200;2022-08-05T23:02:13;23.80;61.80
652;DHT22;310;48.490;9.200;2022-08-05T23:04:39;23.80;57.70
652;DHT22;310;48.490;9.200;2022-08-05T23:07:05;23.90;56.90
652;DHT22;310;48.490;9.200;2022-08-05T23:09:31;24.00;58.20
652;DHT22;310;48.490;9.200;2022-08-05T23:11:57;24.10;58.80
652;DHT22;310;48.490;9.200;2022-08-05T23:16:49;23.80;56.10
652;DHT22;310;48.490;9.200;2022-08-05T23:19:33;23.40;57.80
652;DHT22;310;48.490;9.200;2022-08-05T23:24:24;23.40;58.90
652;DHT22;310;48.490;9.200;2022-08-05T23:26:50;23.00;57.80
652;DHT22;310;48.490;9.200;2022-08-05T23:29:15;23.20;58.80
652;DHT22;310;48.490;9.200;2022-08-05T23:31:41;22.70;55.30
652;DHT22;310;48.490;9.200;2022-08-05T23:36:34;22.70;54.70
652;DHT22;310;48.490;9.200;2022-08-05T23:39:01;22.60;50.60
652;DHT22;310;48.490;9.200;2022-08-05T23:41:26;22.30;53.20
652;DHT22;310;48.490;9.200;2022-08-05T23:43:52;22.80;53.10
652;DHT22;310;48.490;9.200;2022-08-05T23:46:17;22.80;47.60
